»·PEaware :: N2842Y KBFL-KMHV

N2842Y :: KBFL-KMHV

FLIGHT INFORMATION

Flight Status: Arrived
Operator: Privately registered:
United States
More flights under this callsign
Pilot: Cody B. (17747)
Aircraft: CESSNA 172 SKYHAWK
(C172)
More flights by this aircraft type
Origin: KBFL Meadows
United States
Destination: KMHV Mojave
United States
More flights between these airports :: More routes between these airports
Route:
File this flight plan on PilotEdge
Remarks:
Altitude:
(Current/Filed)
7,500ft
Speed:
(Current/Filed)
115kts
Departed: 14-Jun-18 08:55 AM
Arrived: 14-Jun-18 09:31 AM
Distance/Time
Traveled:
50nm/0:36
Distance/Time
To Go:
Arrived

Flight Plot

Page will automatically refresh every two minutes.


Map Options




Map Legend


Flown Route
Filed Route
Departure Airport
Arrival Airport
Navaid (VOR, NDB)
Fix

Horizontal Profiles

Position Reports

Time Latitude Longitude Heading Altitude Ground
Speed
14-Jun-18 08:32 35.435698 -119.053082 175 501ft 0kts
14-Jun-18 08:33 35.435698 -119.053082 175 501ft 0kts
14-Jun-18 08:34 35.435698 -119.053082 175 501ft 0kts
14-Jun-18 08:35 35.435698 -119.053082 175 501ft 0kts
14-Jun-18 08:36 35.435698 -119.053082 175 501ft 0kts
14-Jun-18 08:37 35.435698 -119.053082 175 501ft 0kts
14-Jun-18 08:38 35.435698 -119.053082 175 501ft 0kts
14-Jun-18 08:39 35.435698 -119.053082 175 501ft 0kts
14-Jun-18 08:40 35.435698 -119.053082 175 501ft 0kts
14-Jun-18 08:41 35.435698 -119.053082 175 501ft 0kts
14-Jun-18 08:42 35.435698 -119.053082 175 501ft 0kts
14-Jun-18 08:43 35.435698 -119.053082 175 501ft 0kts
14-Jun-18 08:44 35.435698 -119.053082 175 501ft 0kts
14-Jun-18 08:45 35.435698 -119.053082 175 501ft 0kts
14-Jun-18 08:46 35.435659 -119.053096 213 501ft 1kts
14-Jun-18 08:47 35.434656 -119.054445 228 493ft 5kts
14-Jun-18 08:48 35.433739 -119.053851 137 492ft 6kts
14-Jun-18 08:49 35.432175 -119.051948 134 493ft 10kts
14-Jun-18 08:50 35.429403 -119.048610 135 490ft 10kts
14-Jun-18 08:51 35.427829 -119.046691 135 486ft 15kts
14-Jun-18 08:52 35.426256 -119.044787 139 482ft 2kts
14-Jun-18 08:53 35.425684 -119.044790 225 479ft 0kts
14-Jun-18 08:54 35.425885 -119.046604 315 477ft 15kts
14-Jun-18 08:55 35.439988 -119.064088 309 842ft 90kts
14-Jun-18 08:56 35.457762 -119.087725 309 1585ft 97kts
14-Jun-18 08:57 35.473380 -119.086581 125 2420ft 91kts
14-Jun-18 08:58 35.455959 -119.061537 137 3079ft 96kts
14-Jun-18 08:59 35.436478 -119.041997 148 3642ft 94kts
14-Jun-18 09:00 35.419261 -119.019656 127 4176ft 90kts
14-Jun-18 09:01 35.406404 -118.993195 111 4620ft 92kts
14-Jun-18 09:02 35.395881 -118.964914 113 5097ft 90kts
14-Jun-18 09:03 35.384365 -118.937316 115 5555ft 91kts
14-Jun-18 09:04 35.372805 -118.910697 114 6036ft 86kts
14-Jun-18 09:05 35.363660 -118.885568 105 6516ft 79kts
14-Jun-18 09:06 35.353551 -118.860602 126 6913ft 81kts
14-Jun-18 09:07 35.342672 -118.836435 116 7290ft 83kts
14-Jun-18 09:08 35.332076 -118.808930 116 7496ft 102kts
14-Jun-18 09:09 35.318475 -118.775209 117 7492ft 113kts
14-Jun-18 09:10 35.304209 -118.740452 117 7528ft 112kts
14-Jun-18 09:11 35.290661 -118.707509 118 7667ft 111kts
14-Jun-18 09:12 35.276038 -118.672061 118 7603ft 120kts
14-Jun-18 09:13 35.261109 -118.635846 118 7602ft 118kts
14-Jun-18 09:14 35.246297 -118.599958 118 7602ft 117kts
14-Jun-18 09:15 35.231913 -118.565126 118 7602ft 115kts
14-Jun-18 09:16 35.217383 -118.530010 118 7602ft 115kts
14-Jun-18 09:17 35.202918 -118.495101 118 7602ft 115kts
14-Jun-18 09:18 35.188395 -118.460067 118 7602ft 115kts
14-Jun-18 09:19 35.173870 -118.425068 118 7602ft 115kts
14-Jun-18 09:20 35.161752 -118.395897 118 7602ft 115kts
14-Jun-18 09:21 35.144773 -118.355064 118 7602ft 115kts
14-Jun-18 09:22 35.130764 -118.321290 117 7485ft 104kts
14-Jun-18 09:23 35.120099 -118.291051 120 6956ft 92kts
14-Jun-18 09:24 35.105052 -118.263261 125 6278ft 95kts
14-Jun-18 09:25 35.089819 -118.234402 130 5489ft 107kts
14-Jun-18 09:26 35.075258 -118.206699 128 4674ft 89kts
14-Jun-18 09:27 35.065915 -118.177431 92 3861ft 90kts
14-Jun-18 09:28 35.066504 -118.152433 88 3467ft 87kts
14-Jun-18 09:29 35.066463 -118.127847 159 3068ft 62kts
14-Jun-18 09:30 35.059093 -118.138606 268 2836ft 43kts
14-Jun-18 09:31 35.058725 -118.148360 214 2745ft 10kts
14-Jun-18 09:32 35.058293 -118.148918 232 2744ft 5kts
14-Jun-18 09:33 35.057262 -118.151966 182 2749ft 9kts
14-Jun-18 09:34 35.056462 -118.152075 10 2748ft 1kts

Navigation Log

Ident Type
1. KBFL Airport
2. KMHV Airport